EST,Max TemperatureF,Mean TemperatureF,Min TemperatureF,Max Dew PointF,MeanDew PointF,Min DewpointF,Max Humidity, Mean Humidity, Min Humidity, Max Sea Level PressureIn, Mean Sea Level PressureIn, Min Sea Level PressureIn, Max VisibilityMiles, Mean VisibilityMiles, Min VisibilityMiles, Max Wind SpeedMPH, Mean Wind SpeedMPH, Max Gust SpeedMPH,PrecipitationIn, CloudCover, Events, WindDirDegrees
2012-12-1,24,15,7,20,12,2,86,80,73,30.66,30.56,30.42,10,6,2,5,0,,0.02,8,Snow,10
2012-12-2,51,38,25,40,35,21,100,89,56,30.46,30.07,29.92,10,5,1,8,1,,0.43,8,Rain,299
2012-12-3,46,40,33,43,37,32,100,90,80,30.31,30.12,29.91,10,8,1,13,2,21,0.03,8,Rain,280
2012-12-4,43,36,30,37,31,28,100,91,80,30.30,30.09,29.87,10,6,0,5,1,,0.00,6,Fog-Rain,79
2012-12-5,46,36,26,45,29,16,97,79,59,30.17,29.96,29.79,10,7,2,16,6,25,0.58,7,Rain-Snow,284
2012-12-6,30,23,16,17,15,12,85,67,50,30.38,30.29,30.17,10,10,8,14,7,23,0.00,4,Snow,310
2012-12-7,39,29,19,27,21,16,89,74,43,30.25,30.12,30.04,10,10,10,4,1,,0.00,3,,260
2012-12-8,37,31,25,34,30,23,93,87,79,30.04,29.92,29.82,10,10,7,4,0,,0.00,7,Rain,280
2012-12-9,39,34,30,36,26,21,93,69,51,30.32,30.16,29.94,10,10,10,15,5,28,0.00,6,Rain,317
2012-12-10,44,40,35,40,35,22,100,86,57,30.10,29.68,29.46,10,7,2,23,8,38,0.76,8,Rain-Snow,171
2012-12-11,37,32,26,36,26,17,93,79,63,30.17,29.84,29.57,10,10,10,10,3,16,0.04,8,Rain,280
2012-12-12,34,26,19,21,18,16,86,70,50,30.40,30.32,30.18,10,10,9,7,2,,0.00,4,,254
2012-12-13,37,28,19,25,21,15,89,77,52,30.45,30.38,30.27,10,10,10,5,0,,0.00,4,,290
2012-12-14,37,26,14,27,21,11,89,71,48,30.23,30.13,30.05,10,10,10,10,2,17,0.00,6,,263
2012-12-15,33,22,10,23,11,0,84,63,29,30.38,30.30,30.15,10,10,10,13,5,17,0.00,2,,332
2012-12-16,28,19,10,21,15,6,86,79,57,30.34,30.17,30.07,10,6,1,13,4,,0.04,7,Snow,46
2012-12-17,37,31,25,29,24,18,86,76,67,30.10,30.00,29.88,10,7,1,14,8,22,0.04,8,Rain-Snow,91
2012-12-18,39,36,33,33,31,29,96,79,73,29.83,29.56,29.45,10,8,1,16,11,25,0.16,8,Rain-Snow,85
2012-12-19,35,34,33,32,31,29,96,89,81,30.06,29.66,29.46,10,6,1,6,4,,0.15,8,Snow,275
2012-12-20,34,33,32,30,28,25,93,82,72,30.22,30.12,29.99,10,10,5,13,3,28,0.00,7,Snow,72
2012-12-21,50,42,34,44,32,26,82,76,67,29.96,29.41,29.00,10,9,3,30,10,46,0.40,8,Rain-Snow,138
2012-12-22,36,28,19,28,19,9,86,72,59,29.62,29.35,29.10,10,6,0,13,7,23,0.02,8,Fog-Snow,265
2012-12-23,28,22,17,25,16,7,86,72,58,29.81,29.73,29.59,10,8,0,14,8,21,0.01,8,Fog-Snow,263
2012-12-24,26,16,7,19,11,4,88,74,58,30.09,30.01,29.76,10,9,3,12,6,22,0.00,4,Snow,257
2012-12-25,25,13,0,18,10,-5,93,85,72,30.34,30.13,30.03,10,6,0,4,0,,0.15,4,Fog-Snow,231
2012-12-26,28,11,-6,16,4,-11,96,76,56,30.41,30.29,30.04,10,10,10,13,1,20,0.00,1,,71
2012-12-27,30,26,21,27,22,16,93,84,64,29.99,29.66,29.50,10,2,0,31,11,45,0.32,8,Fog-Snow,55
2012-12-28,24,22,21,19,18,16,93,81,74,30.04,29.90,29.69,10,8,2,8,4,,0.00,8,Snow,263
2012-12-29,26,18,10,21,17,6,89,84,78,30.02,29.77,29.48,10,6,1,9,2,,0.02,7,Snow,26
2012-12-30,24,16,8,21,10,0,93,76,62,30.02,29.70,29.47,10,6,2,14,4,20,0.02,8,Snow,279
2012-12-31,28,19,10,23,14,3,86,78,70,30.04,29.89,29.65,10,9,3,9,5,,0.00,8,Snow,235